BER1010 EGSS-EHAM
Flight info
| Callsign | BER1010 |
|---|---|
| Flight time | 0h 40m |
| Altitude | 21000 |
| Route | CLN P44 RATLO M197 REDFA |
| Aircraft | B738/M-SDE2E3FGHIRWXY/LB1 |
Departure
| Time | 2026-05-07 04:34 |
|---|---|
| Airport | London Stansted Airport (EGSS) |
Arrival
| Time | 2026-05-07 05:15 |
|---|---|
| Airport | Amsterdam Airport Schiphol (EHAM) |
| Time | Latitude | Longitude | Altitude | Speed | Heading |
|---|---|---|---|---|---|
| 2026-05-07 03:43 | 51.89528 | 0.26371 | 358 ft | 0 kts | 223° |
| 2026-05-07 04:11 | 51.89528 | 0.26372 | 348 ft | 0 kts | 223° |
| 2026-05-07 04:21 | 51.89542 | 0.26392 | 358 ft | 4 kts | 223° |
| 2026-05-07 04:22 | 51.89561 | 0.26420 | 350 ft | 2 kts | 223° |
| 2026-05-07 04:22 | 51.89575 | 0.26448 | 357 ft | 4 kts | 258° |
| 2026-05-07 04:22 | 51.89573 | 0.26488 | 351 ft | 4 kts | 298° |
| 2026-05-07 04:22 | 51.89558 | 0.26522 | 354 ft | 3 kts | 313° |
| 2026-05-07 04:23 | 51.89556 | 0.26526 | 353 ft | 1 kts | 313° |
| 2026-05-07 04:24 | 51.89556 | 0.26525 | 354 ft | 1 kts | 313° |
| 2026-05-07 04:25 | 51.89568 | 0.26505 | 351 ft | 4 kts | 313° |
| 2026-05-07 04:25 | 51.89599 | 0.26451 | 351 ft | 9 kts | 313° |
| 2026-05-07 04:25 | 51.89649 | 0.26363 | 349 ft | 12 kts | 311° |
| 2026-05-07 04:25 | 51.89714 | 0.26246 | 351 ft | 15 kts | 312° |
| 2026-05-07 04:26 | 51.89723 | 0.26101 | 348 ft | 15 kts | 226° |
| 2026-05-07 04:26 | 51.89649 | 0.25990 | 355 ft | 14 kts | 222° |
| 2026-05-07 04:26 | 51.89580 | 0.25885 | 353 ft | 14 kts | 224° |
| 2026-05-07 04:26 | 51.89512 | 0.25783 | 348 ft | 13 kts | 222° |
| 2026-05-07 04:27 | 51.89447 | 0.25685 | 352 ft | 13 kts | 224° |
| 2026-05-07 04:27 | 51.89383 | 0.25588 | 356 ft | 12 kts | 223° |
| 2026-05-07 04:27 | 51.89321 | 0.25496 | 348 ft | 12 kts | 222° |
| 2026-05-07 04:27 | 51.89260 | 0.25406 | 352 ft | 12 kts | 222° |
| 2026-05-07 04:28 | 51.89200 | 0.25317 | 352 ft | 11 kts | 222° |
| 2026-05-07 04:28 | 51.89145 | 0.25228 | 348 ft | 11 kts | 223° |
| 2026-05-07 04:28 | 51.89089 | 0.25147 | 352 ft | 11 kts | 221° |
| 2026-05-07 04:28 | 51.89034 | 0.25066 | 352 ft | 11 kts | 222° |
| 2026-05-07 04:29 | 51.88972 | 0.24975 | 350 ft | 13 kts | 224° |
| 2026-05-07 04:29 | 51.88898 | 0.24860 | 352 ft | 16 kts | 223° |
| 2026-05-07 04:29 | 51.88809 | 0.24728 | 356 ft | 18 kts | 222° |
| 2026-05-07 04:29 | 51.88715 | 0.24590 | 351 ft | 18 kts | 221° |
| 2026-05-07 04:30 | 51.88626 | 0.24456 | 348 ft | 17 kts | 223° |
| 2026-05-07 04:30 | 51.88540 | 0.24326 | 352 ft | 17 kts | 223° |
| 2026-05-07 04:30 | 51.88459 | 0.24203 | 355 ft | 16 kts | 224° |
| 2026-05-07 04:30 | 51.88379 | 0.24084 | 348 ft | 15 kts | 221° |
| 2026-05-07 04:31 | 51.88302 | 0.23969 | 352 ft | 15 kts | 222° |
| 2026-05-07 04:31 | 51.88230 | 0.23857 | 349 ft | 14 kts | 223° |
| 2026-05-07 04:31 | 51.88158 | 0.23754 | 351 ft | 13 kts | 222° |
| 2026-05-07 04:31 | 51.88092 | 0.23653 | 351 ft | 13 kts | 223° |
| 2026-05-07 04:32 | 51.88027 | 0.23554 | 350 ft | 13 kts | 223° |
| 2026-05-07 04:32 | 51.87964 | 0.23459 | 353 ft | 12 kts | 223° |
| 2026-05-07 04:32 | 51.87902 | 0.23367 | 351 ft | 12 kts | 222° |
| 2026-05-07 04:32 | 51.87876 | 0.23255 | 348 ft | 12 kts | 298° |
| 2026-05-07 04:33 | 51.87921 | 0.23150 | 350 ft | 11 kts | 281° |
| 2026-05-07 04:33 | 51.87885 | 0.23045 | 348 ft | 11 kts | 221° |
| 2026-05-07 04:33 | 51.87832 | 0.22960 | 348 ft | 11 kts | 237° |
| 2026-05-07 04:33 | 51.87843 | 0.22841 | 350 ft | 14 kts | 306° |
| 2026-05-07 04:34 | 51.87937 | 0.22697 | 339 ft | 23 kts | 349° |
| 2026-05-07 04:34 | 51.88160 | 0.22968 | 334 ft | 80 kts | 43° |
| 2026-05-07 04:34 | 51.88784 | 0.23900 | 345 ft | 161 kts | 42° |
| 2026-05-07 04:34 | 51.89671 | 0.25252 | 1152 ft | 181 kts | 44° |
| 2026-05-07 04:35 | 51.90656 | 0.26729 | 2183 ft | 194 kts | 45° |
| 2026-05-07 04:35 | 51.91529 | 0.28554 | 2699 ft | 224 kts | 67° |
| 2026-05-07 04:35 | 51.91786 | 0.31076 | 3249 ft | 234 kts | 98° |
| 2026-05-07 04:35 | 51.91243 | 0.33546 | 3895 ft | 235 kts | 118° |
| 2026-05-07 04:36 | 51.90462 | 0.35958 | 3998 ft | 251 kts | 118° |
| 2026-05-07 04:36 | 51.89665 | 0.38522 | 4027 ft | 257 kts | 117° |
| 2026-05-07 04:36 | 51.88871 | 0.41137 | 4127 ft | 260 kts | 117° |
| 2026-05-07 04:36 | 51.88077 | 0.43791 | 4890 ft | 262 kts | 116° |
| 2026-05-07 04:37 | 51.87292 | 0.46446 | 5870 ft | 263 kts | 116° |
| 2026-05-07 04:37 | 51.86499 | 0.49141 | 6715 ft | 268 kts | 115° |
| 2026-05-07 04:37 | 51.85695 | 0.51883 | 7400 ft | 277 kts | 116° |
| 2026-05-07 04:37 | 51.84859 | 0.54722 | 8206 ft | 282 kts | 115° |
| 2026-05-07 04:38 | 51.84013 | 0.57599 | 9048 ft | 285 kts | 115° |
| 2026-05-07 04:38 | 51.83266 | 0.60599 | 9843 ft | 291 kts | 104° |
| 2026-05-07 04:38 | 51.82956 | 0.63843 | 10587 ft | 294 kts | 92° |
| 2026-05-07 04:38 | 51.83009 | 0.67151 | 11359 ft | 296 kts | 85° |
| 2026-05-07 04:39 | 51.83157 | 0.70490 | 12117 ft | 300 kts | 85° |
| 2026-05-07 04:39 | 51.83316 | 0.73880 | 12878 ft | 304 kts | 85° |
| 2026-05-07 04:39 | 51.83459 | 0.77268 | 13632 ft | 308 kts | 85° |
| 2026-05-07 04:39 | 51.83597 | 0.80739 | 14337 ft | 312 kts | 86° |
| 2026-05-07 04:40 | 51.83727 | 0.84252 | 15031 ft | 315 kts | 86° |
| 2026-05-07 04:40 | 51.83855 | 0.87806 | 15725 ft | 318 kts | 86° |
| 2026-05-07 04:40 | 51.83984 | 0.91397 | 16413 ft | 321 kts | 86° |
| 2026-05-07 04:40 | 51.84113 | 0.95022 | 17093 ft | 325 kts | 86° |
| 2026-05-07 04:41 | 51.84242 | 0.98687 | 17785 ft | 328 kts | 86° |
| 2026-05-07 04:41 | 51.84373 | 1.02397 | 18449 ft | 332 kts | 86° |
| 2026-05-07 04:41 | 51.84504 | 1.06141 | 19038 ft | 335 kts | 86° |
| 2026-05-07 04:41 | 51.84634 | 1.09920 | 19636 ft | 338 kts | 86° |
| 2026-05-07 04:42 | 51.84773 | 1.13687 | 20221 ft | 341 kts | 83° |
| 2026-05-07 04:42 | 51.85378 | 1.17390 | 20769 ft | 343 kts | 65° |
| 2026-05-07 04:42 | 51.86348 | 1.20931 | 21048 ft | 345 kts | 65° |
| 2026-05-07 04:42 | 51.87336 | 1.24462 | 21050 ft | 344 kts | 64° |
| 2026-05-07 04:43 | 51.88320 | 1.27993 | 21057 ft | 346 kts | 65° |
| 2026-05-07 04:43 | 51.89300 | 1.31553 | 21061 ft | 346 kts | 65° |
| 2026-05-07 04:43 | 51.90272 | 1.35120 | 21064 ft | 346 kts | 65° |
| 2026-05-07 04:43 | 51.91237 | 1.38692 | 21058 ft | 347 kts | 65° |
| 2026-05-07 04:44 | 51.92199 | 1.42274 | 21059 ft | 347 kts | 65° |
| 2026-05-07 04:44 | 51.93146 | 1.45813 | 21058 ft | 347 kts | 65° |
| 2026-05-07 04:44 | 51.94103 | 1.49397 | 21052 ft | 347 kts | 65° |
| 2026-05-07 04:44 | 51.95061 | 1.52986 | 21060 ft | 347 kts | 65° |
| 2026-05-07 04:45 | 51.96018 | 1.56580 | 21057 ft | 347 kts | 65° |
| 2026-05-07 04:45 | 51.96975 | 1.60179 | 21051 ft | 347 kts | 65° |
| 2026-05-07 04:45 | 51.97930 | 1.63776 | 21055 ft | 350 kts | 66° |
| 2026-05-07 04:45 | 51.98911 | 1.67490 | 21084 ft | 365 kts | 66° |
| 2026-05-07 04:46 | 51.99728 | 1.71430 | 21063 ft | 370 kts | 73° |
| 2026-05-07 04:46 | 52.00374 | 1.75484 | 21065 ft | 372 kts | 75° |
| 2026-05-07 04:46 | 52.00971 | 1.79504 | 21054 ft | 372 kts | 76° |
| 2026-05-07 04:46 | 52.01572 | 1.83581 | 21046 ft | 371 kts | 75° |
| 2026-05-07 04:47 | 52.02181 | 1.87656 | 21044 ft | 371 kts | 75° |
| 2026-05-07 04:47 | 52.02797 | 1.91722 | 21051 ft | 370 kts | 75° |
| 2026-05-07 04:47 | 52.03418 | 1.95780 | 21061 ft | 370 kts | 75° |
| 2026-05-07 04:47 | 52.04042 | 1.99836 | 21047 ft | 370 kts | 75° |
| 2026-05-07 04:48 | 52.04667 | 2.03891 | 21052 ft | 370 kts | 75° |
| 2026-05-07 04:48 | 52.05290 | 2.07939 | 21053 ft | 370 kts | 75° |
| 2026-05-07 04:48 | 52.05914 | 2.11994 | 21058 ft | 370 kts | 75° |
| 2026-05-07 04:48 | 52.06528 | 2.15997 | 21051 ft | 370 kts | 75° |
| 2026-05-07 04:49 | 52.07149 | 2.20060 | 21054 ft | 370 kts | 75° |
| 2026-05-07 04:49 | 52.07768 | 2.24117 | 21060 ft | 370 kts | 75° |
| 2026-05-07 04:49 | 52.08387 | 2.28186 | 21051 ft | 371 kts | 75° |
| 2026-05-07 04:49 | 52.09005 | 2.32255 | 21062 ft | 370 kts | 75° |
| 2026-05-07 04:50 | 52.09621 | 2.36324 | 21051 ft | 371 kts | 75° |
| 2026-05-07 04:50 | 52.10237 | 2.40393 | 21055 ft | 371 kts | 75° |
| 2026-05-07 04:50 | 52.10843 | 2.44417 | 21055 ft | 371 kts | 75° |
| 2026-05-07 04:50 | 52.11479 | 2.48481 | 21047 ft | 371 kts | 71° |
| 2026-05-07 04:51 | 52.12579 | 2.52240 | 21070 ft | 368 kts | 59° |
| 2026-05-07 04:51 | 52.13890 | 2.55822 | 21053 ft | 368 kts | 57° |
| 2026-05-07 04:51 | 52.15224 | 2.59379 | 21066 ft | 368 kts | 57° |
| 2026-05-07 04:51 | 52.16558 | 2.62947 | 21052 ft | 369 kts | 57° |
| 2026-05-07 04:52 | 52.17881 | 2.66523 | 21052 ft | 369 kts | 58° |
| 2026-05-07 04:52 | 52.19197 | 2.70114 | 21053 ft | 368 kts | 58° |
| 2026-05-07 04:52 | 52.20481 | 2.73651 | 21037 ft | 356 kts | 58° |
| 2026-05-07 04:52 | 52.21717 | 2.77076 | 21024 ft | 346 kts | 58° |
| 2026-05-07 04:53 | 52.22911 | 2.80397 | 20792 ft | 342 kts | 58° |
| 2026-05-07 04:53 | 52.24099 | 2.83707 | 20539 ft | 337 kts | 58° |
| 2026-05-07 04:53 | 52.25277 | 2.86992 | 20246 ft | 334 kts | 58° |
| 2026-05-07 04:53 | 52.26444 | 2.90253 | 19927 ft | 331 kts | 58° |
| 2026-05-07 04:54 | 52.27600 | 2.93486 | 19613 ft | 329 kts | 58° |
| 2026-05-07 04:54 | 52.28748 | 2.96705 | 19309 ft | 327 kts | 58° |
| 2026-05-07 04:54 | 52.29891 | 2.99913 | 18997 ft | 325 kts | 58° |
| 2026-05-07 04:54 | 52.31026 | 3.03101 | 18686 ft | 324 kts | 58° |
| 2026-05-07 04:55 | 52.32154 | 3.06276 | 18383 ft | 322 kts | 58° |
| 2026-05-07 04:55 | 52.33263 | 3.09397 | 18033 ft | 321 kts | 58° |
| 2026-05-07 04:55 | 52.34381 | 3.12549 | 17705 ft | 319 kts | 58° |
| 2026-05-07 04:55 | 52.35490 | 3.15680 | 17374 ft | 317 kts | 58° |
| 2026-05-07 04:56 | 52.36589 | 3.18786 | 17066 ft | 315 kts | 58° |
| 2026-05-07 04:56 | 52.37683 | 3.21883 | 16753 ft | 313 kts | 58° |
| 2026-05-07 04:56 | 52.38766 | 3.24954 | 16454 ft | 311 kts | 59° |
| 2026-05-07 04:56 | 52.39843 | 3.28011 | 16150 ft | 309 kts | 58° |
| 2026-05-07 04:57 | 52.40911 | 3.31045 | 15852 ft | 307 kts | 58° |
| 2026-05-07 04:57 | 52.41960 | 3.34026 | 15565 ft | 305 kts | 59° |
| 2026-05-07 04:57 | 52.43015 | 3.37030 | 15267 ft | 304 kts | 58° |
| 2026-05-07 04:57 | 52.44064 | 3.40022 | 14967 ft | 302 kts | 59° |
| 2026-05-07 04:58 | 52.45015 | 3.43082 | 14667 ft | 302 kts | 71° |
| 2026-05-07 04:58 | 52.45543 | 3.46401 | 14399 ft | 300 kts | 76° |
| 2026-05-07 04:58 | 52.45992 | 3.49741 | 14107 ft | 299 kts | 77° |
| 2026-05-07 04:58 | 52.46435 | 3.53068 | 13809 ft | 298 kts | 77° |
| 2026-05-07 04:59 | 52.46885 | 3.56385 | 13473 ft | 298 kts | 76° |
| 2026-05-07 04:59 | 52.47335 | 3.59645 | 13172 ft | 296 kts | 77° |
| 2026-05-07 04:59 | 52.47794 | 3.62930 | 12869 ft | 295 kts | 76° |
| 2026-05-07 04:59 | 52.48254 | 3.66197 | 12574 ft | 294 kts | 76° |
| 2026-05-07 05:00 | 52.48714 | 3.69456 | 12258 ft | 293 kts | 76° |
| 2026-05-07 05:00 | 52.49171 | 3.72690 | 11988 ft | 290 kts | 76° |
| 2026-05-07 05:00 | 52.49626 | 3.75911 | 11697 ft | 289 kts | 76° |
| 2026-05-07 05:00 | 52.50079 | 3.79112 | 11414 ft | 287 kts | 76° |
| 2026-05-07 05:01 | 52.50522 | 3.82253 | 11141 ft | 286 kts | 76° |
| 2026-05-07 05:01 | 52.50968 | 3.85421 | 10861 ft | 284 kts | 76° |
| 2026-05-07 05:01 | 52.51411 | 3.88577 | 10583 ft | 283 kts | 76° |
| 2026-05-07 05:01 | 52.51851 | 3.91720 | 10304 ft | 282 kts | 76° |
| 2026-05-07 05:02 | 52.52248 | 3.94851 | 10112 ft | 278 kts | 84° |
| 2026-05-07 05:02 | 52.51969 | 3.97931 | 9898 ft | 274 kts | 113° |
| 2026-05-07 05:02 | 52.51024 | 4.00661 | 9656 ft | 277 kts | 124° |
| 2026-05-07 05:02 | 52.49929 | 4.03295 | 9380 ft | 282 kts | 125° |
| 2026-05-07 05:03 | 52.48819 | 4.05904 | 9097 ft | 283 kts | 125° |
| 2026-05-07 05:03 | 52.47697 | 4.08541 | 8820 ft | 281 kts | 125° |
| 2026-05-07 05:03 | 52.46588 | 4.11155 | 8545 ft | 278 kts | 124° |
| 2026-05-07 05:03 | 52.45489 | 4.13758 | 8281 ft | 276 kts | 124° |
| 2026-05-07 05:04 | 52.44406 | 4.16331 | 8020 ft | 273 kts | 124° |
| 2026-05-07 05:04 | 52.43331 | 4.18889 | 7753 ft | 271 kts | 124° |
| 2026-05-07 05:04 | 52.42269 | 4.21419 | 7512 ft | 268 kts | 124° |
| 2026-05-07 05:04 | 52.41215 | 4.23930 | 7251 ft | 266 kts | 123° |
| 2026-05-07 05:05 | 52.40169 | 4.26422 | 7008 ft | 264 kts | 123° |
| 2026-05-07 05:05 | 52.39147 | 4.28855 | 6765 ft | 262 kts | 123° |
| 2026-05-07 05:05 | 52.38118 | 4.31306 | 6524 ft | 261 kts | 122° |
| 2026-05-07 05:05 | 52.37092 | 4.33747 | 6264 ft | 259 kts | 123° |
| 2026-05-07 05:06 | 52.36072 | 4.36172 | 6002 ft | 258 kts | 123° |
| 2026-05-07 05:06 | 52.35056 | 4.38584 | 5761 ft | 257 kts | 123° |
| 2026-05-07 05:06 | 52.34044 | 4.40986 | 5506 ft | 256 kts | 123° |
| 2026-05-07 05:06 | 52.33032 | 4.43384 | 5255 ft | 257 kts | 123° |
| 2026-05-07 05:07 | 52.32011 | 4.45803 | 5035 ft | 260 kts | 122° |
| 2026-05-07 05:07 | 52.30992 | 4.48215 | 4781 ft | 262 kts | 123° |
| 2026-05-07 05:07 | 52.29959 | 4.50659 | 4519 ft | 261 kts | 123° |
| 2026-05-07 05:07 | 52.28926 | 4.53097 | 4245 ft | 261 kts | 123° |
| 2026-05-07 05:08 | 52.27896 | 4.55527 | 3980 ft | 260 kts | 123° |
| 2026-05-07 05:08 | 52.26871 | 4.57945 | 3713 ft | 258 kts | 123° |
| 2026-05-07 05:08 | 52.25853 | 4.60341 | 3477 ft | 256 kts | 122° |
| 2026-05-07 05:08 | 52.24843 | 4.62720 | 3239 ft | 254 kts | 122° |
| 2026-05-07 05:09 | 52.23842 | 4.65074 | 3038 ft | 248 kts | 122° |
| 2026-05-07 05:09 | 52.22889 | 4.67309 | 2987 ft | 231 kts | 122° |
| 2026-05-07 05:09 | 52.22028 | 4.69324 | 2978 ft | 210 kts | 122° |
| 2026-05-07 05:09 | 52.21221 | 4.71213 | 2815 ft | 196 kts | 122° |
| 2026-05-07 05:10 | 52.20471 | 4.73002 | 2616 ft | 186 kts | 117° |
| 2026-05-07 05:10 | 52.20248 | 4.74938 | 2401 ft | 171 kts | 69° |
| 2026-05-07 05:10 | 52.20976 | 4.76274 | 2159 ft | 158 kts | 23° |
| 2026-05-07 05:10 | 52.22010 | 4.76814 | 1927 ft | 156 kts | 12° |
| 2026-05-07 05:11 | 52.23074 | 4.77112 | 1677 ft | 166 kts | 9° |
| 2026-05-07 05:11 | 52.24383 | 4.77427 | 1637 ft | 208 kts | 9° |
| 2026-05-07 05:11 | 52.25659 | 4.78294 | 2169 ft | 199 kts | 43° |
| 2026-05-07 05:11 | 52.26121 | 4.80198 | 2110 ft | 185 kts | 95° |
| 2026-05-07 05:12 | 52.25466 | 4.81963 | 1926 ft | 189 kts | 146° |
| 2026-05-07 05:12 | 52.24218 | 4.82324 | 1770 ft | 190 kts | 196° |
| 2026-05-07 05:12 | 52.23225 | 4.81017 | 1407 ft | 181 kts | 246° |
| 2026-05-07 05:12 | 52.23157 | 4.79208 | 1353 ft | 149 kts | 299° |
| 2026-05-07 05:13 | 52.23877 | 4.78095 | 1211 ft | 144 kts | 338° |
| 2026-05-07 05:13 | 52.24808 | 4.77801 | 839 ft | 130 kts | 358° |
| 2026-05-07 05:13 | 52.25647 | 4.77702 | 664 ft | 117 kts | 357° |
| 2026-05-07 05:13 | 52.26473 | 4.77659 | 524 ft | 123 kts | 358° |
| 2026-05-07 05:14 | 52.27335 | 4.77637 | 367 ft | 123 kts | 358° |
| 2026-05-07 05:14 | 52.28197 | 4.77648 | 211 ft | 125 kts | 0° |
| 2026-05-07 05:14 | 52.29048 | 4.77726 | 53 ft | 120 kts | 1° |
| 2026-05-07 05:14 | 52.29825 | 4.77798 | -6 ft | 97 kts | 3° |
| 2026-05-07 05:15 | 52.30351 | 4.77851 | 1 ft | 54 kts | 3° |
| 2026-05-07 05:15 | 52.30694 | 4.77883 | -4 ft | 44 kts | 3° |
| 2026-05-07 05:15 | 52.30904 | 4.77845 | -8 ft | 28 kts | 337° |
| 2026-05-07 05:15 | 52.31059 | 4.77721 | -4 ft | 23 kts | 333° |
| 2026-05-07 05:16 | 52.31149 | 4.77575 | -3 ft | 19 kts | 274° |
| 2026-05-07 05:16 | 52.31080 | 4.77433 | -3 ft | 16 kts | 250° |
| 2026-05-07 05:16 | 52.31080 | 4.77256 | -3 ft | 15 kts | 278° |
| 2026-05-07 05:16 | 52.31068 | 4.77125 | -3 ft | 9 kts | 201° |
| 2026-05-07 05:17 | 52.31014 | 4.77119 | -3 ft | 5 kts | 184° |
| 2026-05-07 05:17 | 52.31006 | 4.77118 | -3 ft | 0 kts | 184° |
| 2026-05-07 05:21 | 52.31007 | 4.77118 | -3 ft | 0 kts | 184° |